createdAt,value
2023-03-17T00:01:55.921Z,3.88
2023-03-17T00:04:24.450Z,3.40
2023-03-17T00:06:53.023Z,3.28
2023-03-17T00:09:20.862Z,3.40
2023-03-17T00:11:47.807Z,3.30
2023-03-17T00:14:14.881Z,3.58
2023-03-17T00:16:45.057Z,3.25
2023-03-17T00:19:17.222Z,3.60
2023-03-17T00:21:46.106Z,3.63
2023-03-17T00:24:15.105Z,3.47
2023-03-17T00:26:43.310Z,3.58
2023-03-17T00:29:10.341Z,3.03
2023-03-17T00:31:39.294Z,3.10
2023-03-17T00:34:08.041Z,3.47
2023-03-17T00:36:35.709Z,3.13
2023-03-17T00:39:03.392Z,3.25
2023-03-17T00:41:31.496Z,2.70
2023-03-17T00:43:58.525Z,3.53
2023-03-17T00:46:28.758Z,2.90
2023-03-17T00:48:55.703Z,3.28
2023-03-17T00:51:23.527Z,3.53
2023-03-17T00:53:50.680Z,3.53
2023-03-17T00:56:20.809Z,3.40
2023-03-17T00:58:48.503Z,3.08
2023-03-17T01:01:15.942Z,3.88
2023-03-17T01:03:42.936Z,3.60
2023-03-17T01:06:13.315Z,3.15
2023-03-17T01:08:41.247Z,3.17
2023-03-17T01:11:18.824Z,3.17
2023-03-17T01:13:45.831Z,2.80
2023-03-17T01:16:12.966Z,2.80
2023-03-17T01:18:40.036Z,3.20
2023-03-17T01:21:07.884Z,2.90
2023-03-17T01:23:34.704Z,2.70
2023-03-17T01:26:01.753Z,2.92
2023-03-17T01:28:29.014Z,2.97
2023-03-17T01:30:56.787Z,2.95
2023-03-17T01:33:24.333Z,3.25
2023-03-17T01:35:51.543Z,3.20
2023-03-17T01:38:19.383Z,2.80
2023-03-17T01:40:51.869Z,2.63
2023-03-17T01:43:23.275Z,2.88
2023-03-17T01:46:25.903Z,2.75
2023-03-17T01:49:09.460Z,2.85
2023-03-17T01:51:52.634Z,2.83
2023-03-17T01:54:44.893Z,2.55
2023-03-17T01:57:32.859Z,2.90
2023-03-17T02:00:09.498Z,2.85
2023-03-17T02:02:39.316Z,3.13
2023-03-17T02:05:09.347Z,2.80
2023-03-17T02:07:36.664Z,2.80
2023-03-17T02:10:05.957Z,2.95
2023-03-17T02:12:35.109Z,2.67
2023-03-17T02:15:01.987Z,3.15
2023-03-17T02:17:29.532Z,2.90
2023-03-17T02:19:57.039Z,2.88
2023-03-17T02:22:24.125Z,2.70
2023-03-17T02:24:58.309Z,2.83
2023-03-17T02:27:31.773Z,2.78
2023-03-17T02:29:59.838Z,2.90
2023-03-17T02:32:26.818Z,2.50
2023-03-17T02:34:53.640Z,2.70
2023-03-17T02:37:20.618Z,3.03
2023-03-17T02:39:47.584Z,3.00
2023-03-17T02:42:14.622Z,2.90
2023-03-17T02:44:41.410Z,2.92
2023-03-17T02:47:08.644Z,2.70
2023-03-17T02:49:37.391Z,2.80
2023-03-17T02:52:05.605Z,2.97
2023-03-17T02:54:32.885Z,2.80
2023-03-17T02:57:00.166Z,2.55
2023-03-17T02:59:27.655Z,2.90
2023-03-17T03:01:56.165Z,2.75
2023-03-17T03:04:24.258Z,2.78
2023-03-17T03:06:51.183Z,2.60
2023-03-17T03:09:18.134Z,2.70
2023-03-17T03:11:45.813Z,2.78
2023-03-17T03:14:13.164Z,2.70
2023-03-17T03:16:40.262Z,2.40
2023-03-17T03:19:07.986Z,2.67
2023-03-17T03:21:35.445Z,2.80
2023-03-17T03:24:02.589Z,2.33
2023-03-17T03:26:29.454Z,2.35
2023-03-17T03:28:57.490Z,2.25
2023-03-17T03:31:24.999Z,2.60
2023-03-17T03:33:51.827Z,2.40
2023-03-17T03:36:18.838Z,2.50
2023-03-17T03:38:45.822Z,2.63
2023-03-17T03:41:13.116Z,2.47
2023-03-17T03:43:40.840Z,2.33
2023-03-17T03:46:07.747Z,2.40
2023-03-17T03:48:34.795Z,2.50
2023-03-17T03:51:02.258Z,2.47
2023-03-17T03:53:29.919Z,2.38
2023-03-17T03:55:57.171Z,2.22
2023-03-17T03:58:24.160Z,2.35
2023-03-17T04:00:51.191Z,2.20
2023-03-17T04:03:18.526Z,2.50
2023-03-17T04:05:45.481Z,2.47
2023-03-17T04:08:12.461Z,2.30
2023-03-17T04:10:39.307Z,1.95
2023-03-17T04:13:06.625Z,2.08
2023-03-17T04:15:33.754Z,2.25
2023-03-17T04:18:00.539Z,2.42
2023-03-17T04:20:28.679Z,2.22
2023-03-17T04:22:56.116Z,2.50
2023-03-17T04:25:22.917Z,2.40
2023-03-17T04:27:49.751Z,2.20
2023-03-17T04:30:17.086Z,2.30
2023-03-17T04:32:44.798Z,2.33
2023-03-17T04:35:17.244Z,2.60
2023-03-17T04:37:44.482Z,2.40
2023-03-17T04:40:13.371Z,1.98
2023-03-17T04:42:40.600Z,2.00
2023-03-17T04:45:09.660Z,2.30
2023-03-17T04:47:36.681Z,2.35
2023-03-17T04:50:04.302Z,1.90
2023-03-17T04:52:31.200Z,2.50
2023-03-17T04:54:58.102Z,2.90
2023-03-17T04:57:24.880Z,3.30
2023-03-17T04:59:51.832Z,3.55
2023-03-17T05:02:18.986Z,4.13
2023-03-17T05:04:46.764Z,3.88
2023-03-17T05:07:13.808Z,5.65
2023-03-17T05:09:40.778Z,5.70
2023-03-17T05:12:08.708Z,6.57
2023-03-17T05:14:35.898Z,6.32
2023-03-17T05:17:02.815Z,6.45
2023-03-17T05:19:29.628Z,5.75
2023-03-17T05:21:56.754Z,4.03
2023-03-17T05:24:23.883Z,3.53
2023-03-17T05:26:50.714Z,3.28
2023-03-17T05:29:17.567Z,3.60
2023-03-17T05:31:44.755Z,4.50
2023-03-17T05:34:11.517Z,3.42
2023-03-17T05:36:38.477Z,3.10
2023-03-17T05:39:05.315Z,2.80
2023-03-17T05:41:32.101Z,3.03
2023-03-17T05:43:59.000Z,3.10
2023-03-17T05:46:26.727Z,2.85
2023-03-17T05:48:53.534Z,2.72
2023-03-17T05:51:20.627Z,2.47
2023-03-17T05:53:47.838Z,2.22
2023-03-17T05:56:14.618Z,2.05
2023-03-17T05:58:41.683Z,2.38
2023-03-17T06:01:08.532Z,2.08
2023-03-17T06:03:38.677Z,2.15
2023-03-17T06:06:06.177Z,2.40
2023-03-17T06:08:32.951Z,2.10
2023-03-17T06:10:59.755Z,2.78
2023-03-17T06:13:27.205Z,2.70
2023-03-17T06:15:54.033Z,3.13
2023-03-17T06:18:20.845Z,3.30
2023-03-17T06:20:47.618Z,3.95
2023-03-17T06:23:14.568Z,4.28
2023-03-17T06:25:41.624Z,4.72
2023-03-17T06:28:08.761Z,5.05
2023-03-17T06:30:38.172Z,5.55
2023-03-17T06:33:07.015Z,5.38
2023-03-17T06:35:34.443Z,4.65
2023-03-17T06:38:02.280Z,4.05
2023-03-17T06:40:29.854Z,4.68
2023-03-17T06:42:57.170Z,4.07
2023-03-17T06:45:24.074Z,4.30
2023-03-17T06:47:50.846Z,4.32
2023-03-17T06:50:17.948Z,5.43
2023-03-17T06:52:46.712Z,5.50
2023-03-17T06:55:14.018Z,4.50
2023-03-17T06:57:41.037Z,4.00
2023-03-17T07:00:08.618Z,4.63
2023-03-17T07:02:35.459Z,4.82
2023-03-17T07:05:04.618Z,4.60
2023-03-17T07:07:31.669Z,4.63
2023-03-17T07:09:58.499Z,4.45
2023-03-17T07:12:25.285Z,3.53
2023-03-17T07:14:52.155Z,2.72
2023-03-17T07:17:19.772Z,2.90
2023-03-17T07:19:46.966Z,2.40
2023-03-17T07:22:13.943Z,2.60
2023-03-17T07:24:43.214Z,2.38
2023-03-17T07:27:10.444Z,2.60
2023-03-17T07:29:37.709Z,2.35
2023-03-17T07:32:07.122Z,2.63
2023-03-17T07:34:34.605Z,2.60
2023-03-17T07:37:01.947Z,2.72
2023-03-17T07:39:28.957Z,3.00
2023-03-17T07:41:55.907Z,2.72
2023-03-17T07:44:23.576Z,2.63
2023-03-17T07:46:51.524Z,2.45
2023-03-17T07:49:34.016Z,2.40
2023-03-17T07:52:07.093Z,2.78
2023-03-17T07:54:34.322Z,2.80
2023-03-17T07:57:02.519Z,2.38
2023-03-17T07:59:30.096Z,2.17
2023-03-17T08:01:59.710Z,2.60
2023-03-17T08:04:27.647Z,2.20
2023-03-17T08:06:54.667Z,2.13
2023-03-17T08:09:25.026Z,2.38
2023-03-17T08:11:52.186Z,2.20
2023-03-17T08:14:19.224Z,2.22
2023-03-17T08:16:46.084Z,2.15
2023-03-17T08:19:13.116Z,2.30
2023-03-17T08:21:39.965Z,2.30
2023-03-17T08:24:06.908Z,2.15
2023-03-17T08:26:34.215Z,2.47
2023-03-17T08:29:01.509Z,2.22
2023-03-17T08:31:28.626Z,2.80
2023-03-17T08:33:57.217Z,2.53
2023-03-17T08:36:24.392Z,2.20
2023-03-17T08:38:51.184Z,3.00
2023-03-17T08:41:20.578Z,2.70
2023-03-17T08:43:48.346Z,3.17
2023-03-17T08:46:17.160Z,3.30
2023-03-17T08:48:45.312Z,3.65
2023-03-17T08:51:12.506Z,3.60
2023-03-17T08:53:39.874Z,4.22
2023-03-17T08:56:08.443Z,6.78
2023-03-17T08:58:37.518Z,6.22
2023-03-17T09:01:05.215Z,4.43
2023-03-17T09:03:33.000Z,2.80
2023-03-17T09:06:00.166Z,3.10
2023-03-17T09:08:27.908Z,2.47
2023-03-17T09:10:54.896Z,2.08
2023-03-17T09:13:22.138Z,1.60
2023-03-17T09:15:52.059Z,2.05
2023-03-17T09:18:21.873Z,1.85
2023-03-17T09:20:48.986Z,2.70
2023-03-17T09:23:16.506Z,2.45
2023-03-17T09:25:43.451Z,2.58
2023-03-17T09:28:12.330Z,2.78
2023-03-17T09:30:42.767Z,2.70
2023-03-17T09:33:12.027Z,2.80
2023-03-17T09:35:40.008Z,2.55
2023-03-17T09:38:07.650Z,2.45
2023-03-17T09:40:43.633Z,2.30
2023-03-17T09:43:27.734Z,2.22
2023-03-17T09:45:56.159Z,2.03
2023-03-17T09:48:52.790Z,1.90
2023-03-17T09:51:20.080Z,2.08
2023-03-17T09:54:15.539Z,2.22
2023-03-17T09:56:47.465Z,2.30
2023-03-17T09:59:38.760Z,1.80
2023-03-17T10:02:23.990Z,1.80
2023-03-17T10:04:51.743Z,1.60
2023-03-17T10:07:26.127Z,1.77
2023-03-17T10:10:06.340Z,1.80
2023-03-17T10:12:53.215Z,1.80
2023-03-17T10:15:36.249Z,1.75
2023-03-17T10:18:13.877Z,1.13
2023-03-17T10:20:51.741Z,1.27
2023-03-17T10:23:22.262Z,1.75
2023-03-17T10:25:49.401Z,1.40
2023-03-17T10:28:30.806Z,1.50
2023-03-17T10:31:11.200Z,1.63
2023-03-17T10:33:38.245Z,1.70
2023-03-17T10:36:14.892Z,1.50
2023-03-17T10:38:45.527Z,1.80
2023-03-17T10:41:16.733Z,1.50
2023-03-17T10:43:53.727Z,1.90
2023-03-17T10:46:26.488Z,2.10
2023-03-17T10:49:16.620Z,1.85
2023-03-17T10:51:46.470Z,2.10
2023-03-17T10:54:18.672Z,1.85
2023-03-17T10:56:49.573Z,1.90
2023-03-17T11:02:00.206Z,1.80
2023-03-17T11:04:37.616Z,2.28
2023-03-17T11:07:17.574Z,2.45
2023-03-17T11:09:49.048Z,2.70
2023-03-17T11:12:28.703Z,2.30
2023-03-17T11:15:03.850Z,2.53
2023-03-17T11:17:43.125Z,2.15
2023-03-17T11:20:19.544Z,2.50
2023-03-17T11:23:17.889Z,2.00
2023-03-17T11:25:49.824Z,2.05
2023-03-17T11:28:22.777Z,2.00
2023-03-17T11:31:07.473Z,1.85
2023-03-17T11:33:55.039Z,2.05
2023-03-17T11:36:48.084Z,1.85
2023-03-17T11:39:20.046Z,1.70
2023-03-17T11:42:23.576Z,1.75
2023-03-17T11:45:02.556Z,1.98
2023-03-17T11:48:08.529Z,2.40
2023-03-17T11:50:59.890Z,2.40
2023-03-17T11:54:02.055Z,2.15
2023-03-17T11:57:04.607Z,2.65
2023-03-17T11:59:52.132Z,2.60
2023-03-17T12:02:42.654Z,2.33
2023-03-17T12:05:12.289Z,2.70
2023-03-17T12:08:02.291Z,2.47
2023-03-17T12:10:39.882Z,3.00
2023-03-17T12:13:21.826Z,3.03
2023-03-17T12:16:03.372Z,3.08
2023-03-17T12:18:46.352Z,3.03
2023-03-17T12:21:37.496Z,2.70
2023-03-17T12:24:17.253Z,2.60
2023-03-17T12:27:00.564Z,2.10
2023-03-17T12:30:16.721Z,2.42
2023-03-17T12:33:04.039Z,1.70
2023-03-17T12:35:38.668Z,1.90
2023-03-17T12:38:21.746Z,2.10
2023-03-17T12:41:19.086Z,1.90
2023-03-17T12:43:54.857Z,1.98
2023-03-17T12:46:43.392Z,1.60
2023-03-17T12:49:34.467Z,1.70
2023-03-17T12:52:14.272Z,1.90
2023-03-17T12:54:46.652Z,1.95
2023-03-17T12:57:37.568Z,1.65
2023-03-17T13:00:18.479Z,1.52
2023-03-17T13:02:50.271Z,1.58
2023-03-17T13:05:28.412Z,1.70
2023-03-17T13:07:59.562Z,1.83
2023-03-17T13:10:51.244Z,1.88
2023-03-17T13:13:54.893Z,1.73
2023-03-17T13:16:41.025Z,1.55
2023-03-17T13:19:22.976Z,1.52
2023-03-17T13:22:01.207Z,1.73
2023-03-17T13:24:48.970Z,1.88
2023-03-17T13:27:31.129Z,1.75
2023-03-17T13:29:59.515Z,1.85
2023-03-17T13:32:26.582Z,1.60
2023-03-17T13:35:19.443Z,1.75
2023-03-17T13:38:00.954Z,1.52
2023-03-17T13:40:48.593Z,1.77
2023-03-17T13:43:43.431Z,1.80
2023-03-17T13:46:28.923Z,1.88
2023-03-17T13:48:56.527Z,1.73
2023-03-17T13:51:27.361Z,2.00
2023-03-17T13:54:07.758Z,1.60
2023-03-17T13:56:36.336Z,1.70
2023-03-17T13:59:03.089Z,1.52
2023-03-17T14:01:37.649Z,1.85
2023-03-17T14:04:07.108Z,1.67
2023-03-17T14:06:38.146Z,1.60
2023-03-17T14:09:38.222Z,1.65
2023-03-17T14:12:32.829Z,1.83
2023-03-17T14:17:50.027Z,1.50
2023-03-17T14:20:16.896Z,1.70
2023-03-17T14:22:46.174Z,1.60
2023-03-17T14:25:39.856Z,1.50
2023-03-17T14:28:11.499Z,1.70
2023-03-17T14:30:38.974Z,1.80
2023-03-17T14:33:15.253Z,1.60
2023-03-17T14:35:43.593Z,1.80
2023-03-17T14:38:22.493Z,1.70
2023-03-17T14:40:50.940Z,1.83
2023-03-17T14:43:18.036Z,1.70
2023-03-17T14:46:03.937Z,1.70
2023-03-17T14:48:33.580Z,1.52
2023-03-17T14:51:07.490Z,1.70
2023-03-17T14:56:04.455Z,1.88
2023-03-17T14:58:38.128Z,2.00
2023-03-17T15:01:38.725Z,2.00
2023-03-17T15:04:17.838Z,2.58
2023-03-17T15:07:27.638Z,2.15
2023-03-17T15:10:04.142Z,1.83
2023-03-17T15:12:32.420Z,2.10
2023-03-17T15:15:22.568Z,1.90
2023-03-17T15:17:58.257Z,2.38
2023-03-17T15:20:25.818Z,2.13
2023-03-17T15:23:03.178Z,2.10
2023-03-17T15:25:33.031Z,1.85
2023-03-17T15:28:00.365Z,2.40
2023-03-17T15:30:29.508Z,2.20
2023-03-17T15:33:01.244Z,2.97
2023-03-17T15:35:28.785Z,2.63
2023-03-17T15:37:56.025Z,2.88
2023-03-17T15:40:22.797Z,2.22
2023-03-17T15:42:49.629Z,2.97
2023-03-17T15:45:18.122Z,2.88
2023-03-17T15:47:47.073Z,2.55
2023-03-17T15:50:30.132Z,2.60
2023-03-17T15:52:57.904Z,3.65
2023-03-17T15:55:29.490Z,3.28
2023-03-17T15:57:57.524Z,2.85
2023-03-17T16:00:29.429Z,2.35
2023-03-17T16:03:04.291Z,2.30
2023-03-17T16:05:33.876Z,2.72
2023-03-17T16:08:00.696Z,5.63
2023-03-17T16:10:33.380Z,3.22
2023-03-17T16:13:00.587Z,2.72
2023-03-17T16:15:31.769Z,2.17
2023-03-17T16:18:04.524Z,2.30
2023-03-17T16:20:39.370Z,2.08
2023-03-17T16:23:16.507Z,2.17
2023-03-17T16:25:43.873Z,2.40
2023-03-17T16:28:23.469Z,3.30
2023-03-17T16:30:51.786Z,3.30
2023-03-17T16:33:19.598Z,3.50
2023-03-17T16:35:48.829Z,3.30
2023-03-17T16:38:26.717Z,3.95
2023-03-17T16:41:16.088Z,3.40
2023-03-17T16:43:44.291Z,3.78
2023-03-17T16:46:11.897Z,3.15
2023-03-17T16:48:39.249Z,3.95
2023-03-17T16:51:06.762Z,3.40
2023-03-17T16:53:34.594Z,3.40
2023-03-17T16:56:01.309Z,3.13
2023-03-17T16:58:34.445Z,3.95
2023-03-17T17:01:04.042Z,3.80
2023-03-17T17:03:31.617Z,3.55
2023-03-17T17:05:58.789Z,3.80
2023-03-17T17:08:25.652Z,3.33
2023-03-17T17:10:52.459Z,3.33
2023-03-17T17:13:19.335Z,3.60
2023-03-17T17:15:46.518Z,3.80
2023-03-17T17:18:15.608Z,3.50
2023-03-17T17:20:44.405Z,4.28
2023-03-17T17:23:14.113Z,4.80
2023-03-17T17:25:41.383Z,3.58
2023-03-17T17:28:09.608Z,3.80
2023-03-17T17:30:36.536Z,3.75
2023-03-17T17:33:04.647Z,4.55
2023-03-17T17:35:33.279Z,5.43
2023-03-17T17:38:01.987Z,8.05
2023-03-17T17:40:29.647Z,5.40
2023-03-17T17:42:57.780Z,5.45
2023-03-17T17:45:25.006Z,4.93
2023-03-17T17:47:51.882Z,4.40
2023-03-17T17:50:30.345Z,4.45
2023-03-17T17:53:02.850Z,4.03
2023-03-17T17:55:29.777Z,3.95
2023-03-17T17:57:56.572Z,4.53
2023-03-17T18:00:25.690Z,4.25
2023-03-17T18:02:52.471Z,4.72
2023-03-17T18:05:19.328Z,5.03
2023-03-17T18:07:46.174Z,5.15
2023-03-17T18:10:23.987Z,4.55
2023-03-17T18:12:50.829Z,4.00
2023-03-17T18:15:18.128Z,3.38
2023-03-17T18:17:44.974Z,3.90
2023-03-17T18:20:14.105Z,3.10
2023-03-17T18:22:41.016Z,3.67
2023-03-17T18:25:10.233Z,3.65
2023-03-17T18:27:52.404Z,3.80
2023-03-17T18:30:23.335Z,3.60
2023-03-17T18:32:52.607Z,3.70
2023-03-17T18:35:22.320Z,3.30
2023-03-17T18:37:50.547Z,3.60
2023-03-17T18:40:19.149Z,3.70
2023-03-17T18:42:46.762Z,3.08
2023-03-17T18:45:14.350Z,3.33
2023-03-17T18:47:42.109Z,3.45
2023-03-17T18:50:12.897Z,3.30
2023-03-17T18:52:41.350Z,3.75
2023-03-17T18:55:11.268Z,3.55
2023-03-17T18:57:38.538Z,3.45
2023-03-17T19:00:08.625Z,3.13
2023-03-17T19:02:37.430Z,2.75
2023-03-17T19:05:06.339Z,3.40
2023-03-17T19:07:33.201Z,3.10
2023-03-17T19:10:00.296Z,2.92
2023-03-17T19:12:27.090Z,3.95
2023-03-17T19:14:53.858Z,3.03
2023-03-17T19:17:20.602Z,2.33
2023-03-17T19:19:50.265Z,2.90
2023-03-17T19:22:17.179Z,2.45
2023-03-17T19:24:44.060Z,2.85
2023-03-17T19:27:11.533Z,2.75
2023-03-17T19:29:38.752Z,2.85
2023-03-17T19:32:08.608Z,2.90
2023-03-17T19:34:35.429Z,2.83
2023-03-17T19:37:03.665Z,2.90
2023-03-17T19:39:31.438Z,3.05
2023-03-17T19:41:59.332Z,3.15
2023-03-17T19:44:26.496Z,3.17
2023-03-17T19:46:53.383Z,3.40
2023-03-17T19:49:21.224Z,2.90
2023-03-17T19:51:49.071Z,3.50
2023-03-17T19:54:17.349Z,3.35
2023-03-17T19:56:44.346Z,3.20
2023-03-17T19:59:11.504Z,3.55
2023-03-17T20:01:39.127Z,3.58
2023-03-17T20:04:12.194Z,3.85
2023-03-17T20:06:40.340Z,3.45
2023-03-17T20:09:08.944Z,3.30
2023-03-17T20:11:36.150Z,3.70
2023-03-17T20:14:03.823Z,3.17
2023-03-17T20:16:33.798Z,3.45
2023-03-17T20:19:01.351Z,4.03
2023-03-17T20:21:28.891Z,5.50
2023-03-17T20:23:56.385Z,5.70
2023-03-17T20:26:24.625Z,6.18
2023-03-17T20:28:53.851Z,4.43
2023-03-17T20:31:21.592Z,4.35
2023-03-17T20:33:48.818Z,4.10
2023-03-17T20:36:15.956Z,4.00
2023-03-17T20:38:43.852Z,3.97
2023-03-17T20:41:16.788Z,3.85
2023-03-17T20:43:45.046Z,3.90
2023-03-17T20:46:24.054Z,3.67
2023-03-17T20:48:58.795Z,4.05
2023-03-17T20:51:26.738Z,3.78
2023-03-17T20:53:55.094Z,4.07
2023-03-17T20:56:24.166Z,4.80
2023-03-17T20:58:53.235Z,4.15
2023-03-17T21:01:22.404Z,4.50
2023-03-17T21:03:50.387Z,4.32
2023-03-17T21:06:18.339Z,4.53
2023-03-17T21:08:46.312Z,4.72
2023-03-17T21:11:18.804Z,6.65
2023-03-17T21:13:46.177Z,4.97
2023-03-17T21:16:19.095Z,4.80
2023-03-17T21:18:46.365Z,4.60
2023-03-17T21:21:13.401Z,4.40
2023-03-17T21:23:41.244Z,4.85
2023-03-17T21:26:09.227Z,4.20
2023-03-17T21:28:41.238Z,4.65
2023-03-17T21:31:09.635Z,4.38
2023-03-17T21:33:37.193Z,4.40
2023-03-17T21:36:05.256Z,4.82
2023-03-17T21:38:32.211Z,4.80
2023-03-17T21:41:17.505Z,5.32
2023-03-17T21:43:44.622Z,4.80
2023-03-17T21:46:11.780Z,5.22
2023-03-17T21:48:38.888Z,5.47
2023-03-17T21:51:05.934Z,5.00
2023-03-17T21:53:33.247Z,4.47
2023-03-17T21:56:00.013Z,5.72
2023-03-17T21:58:27.299Z,6.05
2023-03-17T22:00:54.138Z,5.45
2023-03-17T22:03:20.918Z,5.90
2023-03-17T22:05:48.810Z,5.78
2023-03-17T22:08:15.678Z,5.38
2023-03-17T22:10:43.108Z,5.07
2023-03-17T22:13:09.990Z,5.32
2023-03-17T22:15:37.064Z,5.30
2023-03-17T22:18:04.049Z,5.82
2023-03-17T22:20:31.710Z,5.15
2023-03-17T22:22:58.541Z,5.15
2023-03-17T22:25:25.374Z,5.47
2023-03-17T22:27:53.744Z,5.72
2023-03-17T22:30:21.207Z,5.95
2023-03-17T22:32:48.028Z,5.80
2023-03-17T22:35:14.903Z,5.75
2023-03-17T22:37:42.070Z,5.88
2023-03-17T22:40:10.219Z,5.53
2023-03-17T22:42:36.995Z,5.80
2023-03-17T22:45:04.868Z,5.72
2023-03-17T22:47:31.617Z,5.47
2023-03-17T22:49:58.417Z,5.70
2023-03-17T22:52:25.317Z,5.68
2023-03-17T22:54:52.073Z,6.03
2023-03-17T22:57:19.089Z,5.50
2023-03-17T22:59:45.972Z,5.75
2023-03-17T23:02:12.862Z,5.50
2023-03-17T23:04:39.585Z,5.28
2023-03-17T23:07:06.431Z,5.43
2023-03-17T23:09:33.650Z,5.15
2023-03-17T23:12:00.612Z,5.43
2023-03-17T23:14:27.501Z,4.90
2023-03-17T23:16:54.774Z,5.00
2023-03-17T23:19:22.181Z,5.50
2023-03-17T23:21:48.995Z,5.00
2023-03-17T23:24:15.767Z,5.00
2023-03-17T23:26:42.529Z,4.78
2023-03-17T23:29:09.968Z,5.00
2023-03-17T23:31:37.154Z,4.03
2023-03-17T23:34:06.567Z,5.18
2023-03-17T23:36:35.139Z,5.00
2023-03-17T23:39:02.387Z,4.80
2023-03-17T23:41:29.137Z,4.55
2023-03-17T23:43:56.748Z,4.40
2023-03-17T23:46:23.707Z,4.63
2023-03-17T23:48:50.538Z,4.40
2023-03-17T23:51:18.011Z,4.55
2023-03-17T23:53:45.736Z,5.10
2023-03-17T23:56:13.091Z,4.45
2023-03-17T23:58:43.408Z,4.80
